createdAt,value
2018-11-14T00:44:08.270Z,10.40
2018-11-14T00:46:53.973Z,10.40
2018-11-14T01:06:51.787Z,10.60
2018-11-14T01:21:33.052Z,10.50
2018-11-14T01:35:32.878Z,10.10
2018-11-14T01:44:03.267Z,9.90
2018-11-14T01:58:47.418Z,9.60
2018-11-14T02:40:23.557Z,9.80
2018-11-14T03:17:05.677Z,9.40
2018-11-14T03:28:51.103Z,8.80
2018-11-14T03:38:41.537Z,8.50
2018-11-14T03:41:27.129Z,8.40
2018-11-14T03:49:47.857Z,8.30
2018-11-14T03:58:04.783Z,8.20
2018-11-14T04:10:04.261Z,8.10
2018-11-14T04:24:37.499Z,8.20
2018-11-14T04:54:24.003Z,8.70
2018-11-14T04:56:58.663Z,8.70
2018-11-14T05:02:34.313Z,8.80
2018-11-14T05:05:16.206Z,9.30
2018-11-14T05:34:45.280Z,9.10
2018-11-14T05:42:40.512Z,9.00
2018-11-14T05:48:04.238Z,9.00
2018-11-14T05:59:02.830Z,8.80
2018-11-14T06:01:35.925Z,8.80
2018-11-14T06:04:09.546Z,8.80
2018-11-14T06:06:43.218Z,8.80
2018-11-14T06:09:16.802Z,8.80
2018-11-14T06:11:50.303Z,8.70
2018-11-14T06:14:24.724Z,8.80
2018-11-14T06:16:58.424Z,8.70
2018-11-14T06:19:31.849Z,8.70
2018-11-14T06:22:06.029Z,8.70
2018-11-14T06:24:39.799Z,8.70
2018-11-14T06:27:13.879Z,8.70
2018-11-14T06:29:47.094Z,8.70
2018-11-14T06:32:20.666Z,8.80
2018-11-14T06:34:53.769Z,8.70
2018-11-14T06:37:29.262Z,8.70
2018-11-14T06:40:03.118Z,8.70
2018-11-14T06:42:36.613Z,8.70
2018-11-14T06:45:15.458Z,8.70
2018-11-14T06:47:50.913Z,8.70
2018-11-14T06:50:23.911Z,8.70
2018-11-14T06:53:00.555Z,8.70
2018-11-14T06:55:34.729Z,8.70
2018-11-14T06:58:09.273Z,8.70
2018-11-14T07:00:42.891Z,8.70
2018-11-14T07:03:17.190Z,8.70
2018-11-14T07:05:51.161Z,8.70
2018-11-14T07:08:24.582Z,8.70
2018-11-14T07:10:58.114Z,8.80
2018-11-14T07:13:32.767Z,8.80
2018-11-14T07:16:06.239Z,8.80
2018-11-14T07:18:39.788Z,8.80
2018-11-14T07:21:14.295Z,8.70
2018-11-14T07:23:48.529Z,8.60
2018-11-14T07:26:23.618Z,8.60
2018-11-14T07:28:58.351Z,8.60
2018-11-14T07:31:33.005Z,8.40
2018-11-14T07:34:07.382Z,8.40
2018-11-14T07:36:42.560Z,8.40
2018-11-14T07:39:15.670Z,8.40
2018-11-14T07:41:49.683Z,8.30
2018-11-14T07:44:24.707Z,8.20
2018-11-14T07:46:58.773Z,8.20
2018-11-14T07:49:32.473Z,8.20
2018-11-14T07:52:06.049Z,8.20
2018-11-14T07:54:39.054Z,8.20
2018-11-14T07:57:12.041Z,8.20
2018-11-14T07:59:45.647Z,8.30
2018-11-14T08:02:19.867Z,8.30
2018-11-14T08:04:53.601Z,8.40
2018-11-14T08:07:26.547Z,8.40
2018-11-14T08:09:59.373Z,8.40
2018-11-14T08:12:33.201Z,8.40
2018-11-14T08:15:07.448Z,8.40
2018-11-14T08:17:42.889Z,8.50
2018-11-14T08:20:15.913Z,8.50
2018-11-14T08:22:51.045Z,8.30
2018-11-14T08:25:25.721Z,8.30
2018-11-14T08:28:01.145Z,8.20
2018-11-14T08:30:35.332Z,8.10
2018-11-14T08:33:09.168Z,8.20
2018-11-14T08:35:42.215Z,8.30
2018-11-14T08:38:15.652Z,8.40
2018-11-14T08:40:50.428Z,8.40
2018-11-14T08:43:26.114Z,8.40
2018-11-14T08:46:00.890Z,8.40
2018-11-14T08:48:34.381Z,8.50
2018-11-14T08:51:08.861Z,8.60
2018-11-14T08:53:43.257Z,8.70
2018-11-14T08:56:18.000Z,8.80
2018-11-14T08:58:55.035Z,8.80
2018-11-14T09:01:28.386Z,8.90
2018-11-14T09:04:01.907Z,9.00
2018-11-14T09:06:35.354Z,9.00
2018-11-14T09:09:10.950Z,9.10
2018-11-14T09:11:45.730Z,9.10
2018-11-14T09:14:18.863Z,9.10
2018-11-14T09:16:52.654Z,9.00
2018-11-14T09:19:26.900Z,9.00
2018-11-14T09:22:00.107Z,8.90
2018-11-14T09:24:33.722Z,8.90
2018-11-14T09:27:06.886Z,8.80
2018-11-14T09:29:40.526Z,8.80
2018-11-14T09:32:14.048Z,8.70
2018-11-14T09:34:49.462Z,8.70
2018-11-14T09:37:24.851Z,8.70
2018-11-14T09:39:58.305Z,8.70
2018-11-14T09:42:31.695Z,8.60
2018-11-14T09:45:05.093Z,8.70
2018-11-14T09:47:38.945Z,8.80
2018-11-14T09:50:17.275Z,8.80
2018-11-14T09:52:53.996Z,8.80
2018-11-14T09:55:27.369Z,8.70
2018-11-14T09:58:00.592Z,8.80
2018-11-14T10:00:34.917Z,8.90
2018-11-14T10:03:16.834Z,8.90
2018-11-14T10:05:52.377Z,9.00
2018-11-14T10:08:26.426Z,9.00
2018-11-14T10:10:59.727Z,9.00
2018-11-14T10:13:33.658Z,9.00
2018-11-14T10:16:07.279Z,9.00
2018-11-14T10:18:40.475Z,9.00
2018-11-14T10:21:14.650Z,8.90
2018-11-14T10:23:47.689Z,9.00
2018-11-14T10:26:21.147Z,9.10
2018-11-14T10:28:54.902Z,9.20
2018-11-14T10:31:28.259Z,9.20
2018-11-14T10:34:01.437Z,9.20
2018-11-14T10:36:35.136Z,9.40
2018-11-14T10:39:11.998Z,9.40
2018-11-14T10:41:47.870Z,9.40
2018-11-14T10:44:23.440Z,9.40
2018-11-14T10:46:58.243Z,9.40
2018-11-14T10:49:31.626Z,9.30
2018-11-14T10:52:05.965Z,9.20
2018-11-14T10:54:40.600Z,9.20
2018-11-14T10:57:13.415Z,9.20
2018-11-14T10:59:46.857Z,9.00
2018-11-14T11:02:24.605Z,9.00
2018-11-14T11:05:02.174Z,9.00
2018-11-14T11:07:39.539Z,9.00
2018-11-14T11:10:17.208Z,8.90
2018-11-14T11:12:54.881Z,8.90
2018-11-14T11:15:32.190Z,8.80
2018-11-14T11:18:08.313Z,8.80
2018-11-14T11:20:41.704Z,8.90
2018-11-14T11:23:14.919Z,8.90
2018-11-14T11:25:48.469Z,8.90
2018-11-14T11:28:21.879Z,9.00
2018-11-14T11:31:13.729Z,9.00
2018-11-14T11:33:46.826Z,9.00
2018-11-14T11:36:19.841Z,9.00
2018-11-14T11:38:53.321Z,9.00
2018-11-14T11:41:26.593Z,9.10
2018-11-14T11:43:59.933Z,9.20
2018-11-14T11:46:33.053Z,9.30
2018-11-14T11:49:06.743Z,9.40
2018-11-14T11:51:40.831Z,9.40
2018-11-14T11:54:14.242Z,9.40
2018-11-14T11:56:47.800Z,9.40
2018-11-14T11:59:21.061Z,9.40
2018-11-14T12:01:55.069Z,9.30
2018-11-14T12:04:28.436Z,9.20
2018-11-14T12:07:02.044Z,9.20
2018-11-14T12:09:35.305Z,9.30
2018-11-14T12:12:08.552Z,9.40
2018-11-14T12:14:43.552Z,9.50
2018-11-14T12:17:16.809Z,9.50
2018-11-14T12:19:50.560Z,9.50
2018-11-14T12:22:24.015Z,9.50
2018-11-14T12:24:57.052Z,9.40
2018-11-14T12:27:30.372Z,9.30
2018-11-14T12:30:03.534Z,9.30
2018-11-14T12:32:36.783Z,9.30
2018-11-14T12:35:12.497Z,9.30
2018-11-14T12:37:46.115Z,9.30
2018-11-14T12:40:19.352Z,9.20
2018-11-14T12:42:52.482Z,9.20
2018-11-14T12:45:27.084Z,9.20
2018-11-14T12:48:00.513Z,9.20
2018-11-14T12:50:33.800Z,9.20
2018-11-14T12:53:08.173Z,9.30
2018-11-14T12:55:41.624Z,9.30
2018-11-14T12:58:15.031Z,9.30
2018-11-14T13:00:49.922Z,9.40
2018-11-14T13:03:25.516Z,9.50
2018-11-14T13:06:00.890Z,9.40
2018-11-14T13:08:35.090Z,9.60
2018-11-14T13:11:13.095Z,9.70
2018-11-14T13:13:47.076Z,9.60
2018-11-14T13:16:20.995Z,9.40
2018-11-14T13:18:54.226Z,9.10
2018-11-14T13:21:27.320Z,8.80
2018-11-14T13:24:01.062Z,8.60
2018-11-14T13:26:34.213Z,8.40
2018-11-14T13:29:08.482Z,8.20
2018-11-14T13:31:42.239Z,8.20
2018-11-14T13:34:16.334Z,8.10
2018-11-14T13:36:50.931Z,8.10
2018-11-14T13:39:24.048Z,8.20
2018-11-14T13:41:57.557Z,8.20
2018-11-14T13:44:30.621Z,8.10
2018-11-14T13:47:03.493Z,8.10
2018-11-14T13:49:36.948Z,8.10
2018-11-14T13:52:10.000Z,8.00
2018-11-14T13:54:43.261Z,8.10
2018-11-14T13:57:16.668Z,8.20
2018-11-14T13:59:50.437Z,8.30
2018-11-14T14:02:24.999Z,8.40
2018-11-14T14:04:58.301Z,8.50
2018-11-14T14:07:31.755Z,8.50
2018-11-14T14:10:05.964Z,8.60
2018-11-14T14:12:39.503Z,8.60
2018-11-14T14:15:16.000Z,8.70
2018-11-14T14:17:49.847Z,9.00
2018-11-14T14:20:23.865Z,9.00
2018-11-14T14:22:57.200Z,9.00
2018-11-14T14:25:30.550Z,9.00
2018-11-14T14:30:43.535Z,8.80
2018-11-14T14:33:18.004Z,8.70
2018-11-14T14:35:52.247Z,8.60
2018-11-14T14:38:25.665Z,8.50
2018-11-14T14:40:59.064Z,8.50
2018-11-14T14:43:32.497Z,8.40
2018-11-14T14:46:06.489Z,8.40
2018-11-14T14:48:39.934Z,8.40
2018-11-14T14:51:15.636Z,8.30
2018-11-14T14:53:51.352Z,8.30
2018-11-14T14:56:25.660Z,8.40
2018-11-14T14:58:59.274Z,8.40
2018-11-14T15:01:32.811Z,8.50
2018-11-14T15:04:08.240Z,8.60
2018-11-14T15:06:42.871Z,8.60
2018-11-14T15:09:15.915Z,8.50
2018-11-14T15:11:49.003Z,8.60
2018-11-14T15:14:22.026Z,8.60
2018-11-14T15:16:56.423Z,8.60
2018-11-14T15:19:30.451Z,8.60
2018-11-14T15:22:04.402Z,8.60
2018-11-14T15:24:42.796Z,8.60
2018-11-14T15:27:19.907Z,8.70
2018-11-14T15:29:57.422Z,8.70
2018-11-14T15:32:37.506Z,8.70
2018-11-14T15:35:12.593Z,8.70
2018-11-14T15:37:46.644Z,8.80
2018-11-14T15:40:21.463Z,8.80
2018-11-14T15:42:55.073Z,8.70
2018-11-14T15:45:30.842Z,8.60
2018-11-14T15:48:04.432Z,8.50
2018-11-14T15:50:38.764Z,8.40
2018-11-14T15:53:12.401Z,8.40
2018-11-14T15:55:46.469Z,8.40
2018-11-14T15:58:19.780Z,8.30
2018-11-14T16:00:56.237Z,8.30
2018-11-14T16:03:30.129Z,8.30
2018-11-14T16:06:03.721Z,8.30
2018-11-14T16:08:38.335Z,8.30
2018-11-14T16:11:11.659Z,8.30
2018-11-14T16:13:49.368Z,8.30
2018-11-14T16:16:22.838Z,8.30
2018-11-14T16:18:57.654Z,8.30
2018-11-14T16:21:31.927Z,8.30
2018-11-14T16:24:05.290Z,8.30
2018-11-14T16:26:40.471Z,8.30
2018-11-14T16:29:14.312Z,8.30
2018-11-14T16:31:47.942Z,8.30
2018-11-14T16:34:21.278Z,8.30
2018-11-14T16:36:54.853Z,8.40
2018-11-14T16:39:28.359Z,8.40
2018-11-14T16:42:02.084Z,8.40
2018-11-14T16:44:35.445Z,8.40
2018-11-14T16:47:09.686Z,8.40
2018-11-14T16:49:43.265Z,8.40
2018-11-14T16:52:17.308Z,8.50
2018-11-14T16:54:50.805Z,8.50
2018-11-14T16:57:24.105Z,8.50
2018-11-14T16:59:58.047Z,8.60
2018-11-14T17:02:32.754Z,8.60
2018-11-14T17:05:07.300Z,8.70
2018-11-14T17:07:40.628Z,8.70
2018-11-14T17:10:16.027Z,8.80
2018-11-14T17:12:51.380Z,8.80
2018-11-14T17:15:26.190Z,8.80
2018-11-14T17:17:59.764Z,8.80
2018-11-14T17:20:34.144Z,8.90
2018-11-14T17:23:07.782Z,9.00
2018-11-14T17:25:41.474Z,9.10
2018-11-14T17:28:14.805Z,9.20
2018-11-14T17:30:48.177Z,9.30
2018-11-14T17:33:21.367Z,9.30
2018-11-14T17:35:55.813Z,9.40
2018-11-14T17:38:30.208Z,9.50
2018-11-14T17:41:04.275Z,9.50
2018-11-14T17:43:38.183Z,9.50
2018-11-14T17:46:11.513Z,9.50
2018-11-14T17:48:45.516Z,9.50
2018-11-14T17:51:19.183Z,9.50
2018-11-14T17:53:52.598Z,9.60
2018-11-14T17:56:25.876Z,9.70
2018-11-14T17:59:01.157Z,9.80
2018-11-14T18:01:34.807Z,10.00
2018-11-14T18:04:09.705Z,10.00
2018-11-14T18:06:42.981Z,10.10
2018-11-14T18:09:17.395Z,10.10
2018-11-14T18:11:50.723Z,10.10
2018-11-14T18:14:25.843Z,10.10
2018-11-14T18:16:59.009Z,10.20
2018-11-14T18:19:32.565Z,10.10
2018-11-14T18:22:06.124Z,10.10
2018-11-14T18:24:40.329Z,10.30
2018-11-14T18:27:13.752Z,10.30
2018-11-14T18:29:51.032Z,10.30
2018-11-14T18:32:26.379Z,10.30
2018-11-14T18:34:59.970Z,10.40
2018-11-14T18:37:33.528Z,10.30
2018-11-14T18:40:07.682Z,10.40
2018-11-14T18:42:41.263Z,10.50
2018-11-14T18:45:21.848Z,10.50
2018-11-14T18:47:55.985Z,10.70
2018-11-14T18:50:31.204Z,10.70
2018-11-14T18:53:08.995Z,10.70
2018-11-14T18:55:42.998Z,10.90
2018-11-14T18:58:17.036Z,11.00
2018-11-14T19:00:52.104Z,11.10
2018-11-14T19:03:25.814Z,11.20
2018-11-14T19:05:59.477Z,11.20
2018-11-14T19:08:35.464Z,11.30
2018-11-14T19:11:09.237Z,11.30
2018-11-14T19:13:43.474Z,11.20
2018-11-14T19:16:16.957Z,11.30
2018-11-14T19:18:50.474Z,11.30
2018-11-14T19:21:24.557Z,11.40
2018-11-14T19:23:59.670Z,11.40
2018-11-14T19:26:32.901Z,11.50
2018-11-14T19:29:06.999Z,11.60
2018-11-14T19:31:45.518Z,11.60
2018-11-14T19:34:20.248Z,11.60
2018-11-14T19:36:54.194Z,11.60
2018-11-14T19:39:28.762Z,11.60
2018-11-14T19:42:02.581Z,11.60
2018-11-14T19:44:36.696Z,11.70
2018-11-14T19:47:10.229Z,11.60
2018-11-14T19:49:43.525Z,11.60
2018-11-14T19:52:17.193Z,11.70
2018-11-14T19:54:50.296Z,11.70
2018-11-14T19:57:25.069Z,11.80
2018-11-14T19:59:57.968Z,11.70
2018-11-14T20:02:32.424Z,11.70
2018-11-14T20:05:06.550Z,11.70
2018-11-14T20:07:39.936Z,11.60
2018-11-14T20:10:16.425Z,11.60
2018-11-14T20:12:52.603Z,11.60
2018-11-14T20:15:28.177Z,11.50
2018-11-14T20:18:03.821Z,11.60
2018-11-14T20:20:39.179Z,11.60
2018-11-14T20:23:13.806Z,11.60
2018-11-14T20:25:48.019Z,11.70
2018-11-14T20:28:21.037Z,11.60
2018-11-14T20:30:54.922Z,11.70
2018-11-14T20:33:27.956Z,11.70
2018-11-14T20:36:04.152Z,11.60
2018-11-14T20:38:38.552Z,11.60
2018-11-14T20:41:14.454Z,11.60
2018-11-14T20:43:50.008Z,11.70
2018-11-14T20:46:24.522Z,11.60
2018-11-14T20:49:06.169Z,11.60
2018-11-14T20:51:41.988Z,11.60
2018-11-14T20:54:37.466Z,11.60
2018-11-14T20:57:13.028Z,11.70
2018-11-14T20:59:56.107Z,11.70
2018-11-14T21:02:33.312Z,11.70
2018-11-14T21:05:13.276Z,11.70
2018-11-14T21:07:47.320Z,11.70
2018-11-14T21:10:25.424Z,11.70
2018-11-14T21:13:00.901Z,11.70
2018-11-14T21:15:40.894Z,11.70
2018-11-14T21:18:16.059Z,11.70
2018-11-14T21:20:57.948Z,11.60
2018-11-14T21:23:31.014Z,11.60
2018-11-14T21:26:03.988Z,11.60
2018-11-14T21:28:49.116Z,11.60
2018-11-14T21:31:26.296Z,11.60
2018-11-14T21:34:05.819Z,11.60
2018-11-14T21:36:42.613Z,11.60
2018-11-14T21:39:20.136Z,11.70
2018-11-14T21:42:00.119Z,11.70
2018-11-14T21:44:39.069Z,11.70
2018-11-14T21:47:14.808Z,11.80
2018-11-14T21:49:55.710Z,11.80
2018-11-14T21:52:33.927Z,11.80
2018-11-14T21:55:14.037Z,11.80
2018-11-14T21:57:48.937Z,11.80
2018-11-14T22:00:26.716Z,11.80
2018-11-14T22:03:00.474Z,11.70
2018-11-14T22:05:35.028Z,11.70
2018-11-14T22:08:10.823Z,11.70
2018-11-14T22:10:46.555Z,11.70
2018-11-14T22:13:22.297Z,11.80
2018-11-14T22:19:35.070Z,11.70
2018-11-14T22:22:10.016Z,11.70
2018-11-14T22:24:43.362Z,11.70
2018-11-14T22:27:17.410Z,11.80
2018-11-14T22:29:53.845Z,11.80
2018-11-14T22:32:29.108Z,11.70
2018-11-14T22:35:02.563Z,11.70
2018-11-14T22:37:35.862Z,11.70
2018-11-14T22:40:10.955Z,11.70
2018-11-14T22:42:45.182Z,11.70
2018-11-14T22:45:23.391Z,11.70
2018-11-14T22:47:56.681Z,11.80
2018-11-14T22:50:33.105Z,11.80
2018-11-14T22:53:06.453Z,11.70
2018-11-14T22:55:42.153Z,11.70
2018-11-14T22:58:17.247Z,11.70
2018-11-14T23:00:51.399Z,11.70
2018-11-14T23:03:24.806Z,11.80
2018-11-14T23:05:58.029Z,11.80
2018-11-14T23:08:32.854Z,11.90
2018-11-14T23:11:06.907Z,11.90
2018-11-14T23:13:42.835Z,11.90
2018-11-14T23:16:16.114Z,12.00
2018-11-14T23:18:50.063Z,12.00
2018-11-14T23:21:27.053Z,11.90
2018-11-14T23:24:01.251Z,11.90
2018-11-14T23:26:34.759Z,11.90
2018-11-14T23:29:08.112Z,11.90
2018-11-14T23:31:42.035Z,11.90
2018-11-14T23:34:15.529Z,11.90
2018-11-14T23:36:48.878Z,11.90
2018-11-14T23:39:22.913Z,11.90
2018-11-14T23:41:57.652Z,11.80
2018-11-14T23:44:31.192Z,11.80
2018-11-14T23:47:05.649Z,11.80
2018-11-14T23:49:39.703Z,11.80
2018-11-14T23:52:13.411Z,11.70
2018-11-14T23:54:49.083Z,11.70
2018-11-14T23:57:22.529Z,11.70
2018-11-14T23:59:55.973Z,11.70
